createdAt,value
2018-12-03T00:02:26.414Z,54.33
2018-12-03T00:04:55.259Z,43.63
2018-12-03T00:07:24.511Z,60.48
2018-12-03T00:09:53.458Z,59.00
2018-12-03T00:12:22.663Z,47.97
2018-12-03T00:14:51.831Z,55.73
2018-12-03T00:17:20.651Z,43.17
2018-12-03T00:19:49.506Z,41.57
2018-12-03T00:22:18.330Z,46.40
2018-12-03T00:24:47.573Z,49.77
2018-12-03T00:27:16.899Z,31.67
2018-12-03T00:29:45.842Z,40.43
2018-12-03T00:32:14.706Z,40.37
2018-12-03T00:34:43.531Z,38.70
2018-12-03T00:37:12.342Z,40.23
2018-12-03T00:39:41.181Z,45.23
2018-12-03T00:42:10.079Z,44.70
2018-12-03T00:44:39.350Z,40.03
2018-12-03T00:47:08.275Z,35.80
2018-12-03T00:49:37.083Z,41.77
2018-12-03T00:52:06.844Z,41.53
2018-12-03T00:54:36.151Z,45.07
2018-12-03T00:57:05.118Z,30.60
2018-12-03T00:59:33.951Z,31.60
2018-12-03T01:02:03.210Z,38.50
2018-12-03T01:04:33.923Z,40.50
2018-12-03T01:07:02.910Z,36.97
2018-12-03T01:09:31.726Z,43.27
2018-12-03T01:12:00.937Z,37.10
2018-12-03T01:14:29.863Z,43.43
2018-12-03T01:16:59.074Z,35.60
2018-12-03T01:19:28.082Z,47.10
2018-12-03T01:21:57.386Z,36.83
2018-12-03T01:24:26.331Z,41.37
2018-12-03T01:26:55.134Z,41.27
2018-12-03T01:29:23.975Z,38.53
2018-12-03T01:31:53.077Z,43.23
2018-12-03T01:34:21.650Z,43.87
2018-12-03T01:36:50.434Z,41.47
2018-12-03T01:39:20.018Z,41.90
2018-12-03T01:41:48.858Z,51.47
2018-12-03T01:44:18.094Z,41.93
2018-12-03T01:46:46.986Z,44.93
2018-12-03T01:49:16.175Z,47.00
2018-12-03T01:51:45.074Z,43.40
2018-12-03T01:54:13.933Z,46.23
2018-12-03T01:56:42.730Z,59.87
2018-12-03T01:59:11.518Z,50.70
2018-12-03T02:01:40.367Z,40.70
2018-12-03T02:04:09.598Z,54.60
2018-12-03T02:06:38.925Z,47.13
2018-12-03T02:09:08.987Z,51.13
2018-12-03T02:11:37.810Z,49.20
2018-12-03T02:14:06.847Z,41.00
2018-12-03T02:16:36.096Z,41.13
2018-12-03T02:19:05.106Z,49.87
2018-12-03T02:21:34.291Z,54.80
2018-12-03T02:24:03.198Z,44.60
2018-12-03T02:26:31.986Z,49.93
2018-12-03T02:29:00.878Z,62.83
2018-12-03T02:31:30.075Z,55.67
2018-12-03T02:33:58.951Z,58.73
2018-12-03T02:36:28.141Z,45.77
2018-12-03T02:38:57.055Z,54.23
2018-12-03T02:41:25.895Z,53.02
2018-12-03T02:43:54.718Z,49.67
2018-12-03T02:46:23.546Z,50.27
2018-12-03T02:48:52.926Z,50.00
2018-12-03T02:51:21.825Z,52.70
2018-12-03T02:53:50.662Z,49.83
2018-12-03T02:56:20.518Z,48.30
2018-12-03T02:58:49.462Z,43.28
2018-12-03T03:01:18.707Z,59.20
2018-12-03T03:03:47.614Z,40.77
2018-12-03T03:06:16.814Z,53.90
2018-12-03T03:08:45.715Z,57.37
2018-12-03T03:11:14.530Z,50.17
2018-12-03T03:13:43.725Z,53.27
2018-12-03T03:16:12.647Z,44.83
2018-12-03T03:18:41.471Z,50.90
2018-12-03T03:21:10.259Z,54.27
2018-12-03T03:23:39.478Z,51.20
2018-12-03T03:26:08.391Z,59.00
2018-12-03T03:28:37.542Z,57.40
2018-12-03T03:31:06.479Z,47.40
2018-12-03T03:33:35.283Z,45.83
2018-12-03T03:36:04.580Z,49.87
2018-12-03T03:38:33.530Z,49.73
2018-12-03T03:41:02.719Z,50.57
2018-12-03T03:43:31.658Z,51.63
2018-12-03T03:46:00.523Z,49.50
2018-12-03T03:48:29.343Z,54.00
2018-12-03T03:50:58.171Z,45.83
2018-12-03T03:53:26.978Z,59.87
2018-12-03T03:55:55.811Z,54.63
2018-12-03T03:58:24.639Z,62.60
2018-12-03T04:00:53.450Z,56.77
2018-12-03T04:03:22.247Z,52.27
2018-12-03T04:05:51.037Z,57.23
2018-12-03T04:08:19.866Z,47.53
2018-12-03T04:10:48.691Z,48.90
2018-12-03T04:13:17.483Z,55.23
2018-12-03T04:15:46.287Z,50.97
2018-12-03T04:18:15.114Z,52.67
2018-12-03T04:20:43.902Z,50.83
2018-12-03T04:23:12.754Z,56.43
2018-12-03T04:25:41.935Z,44.90
2018-12-03T04:28:10.886Z,51.37
2018-12-03T04:30:39.703Z,51.93
2018-12-03T04:33:12.181Z,51.00
2018-12-03T04:35:41.084Z,54.03
2018-12-03T04:38:09.896Z,51.47
2018-12-03T04:40:39.119Z,51.97
2018-12-03T04:43:08.035Z,50.50
2018-12-03T04:45:37.264Z,49.47
2018-12-03T04:48:06.223Z,45.60
2018-12-03T04:50:35.014Z,52.60
2018-12-03T04:53:04.327Z,53.20
2018-12-03T04:55:33.230Z,47.63
2018-12-03T04:58:02.054Z,43.80
2018-12-03T05:00:30.872Z,48.40
2018-12-03T05:02:59.680Z,47.33
2018-12-03T05:05:28.505Z,55.73
2018-12-03T05:07:57.689Z,66.23
2018-12-03T05:10:26.737Z,54.80
2018-12-03T05:12:55.891Z,50.23
2018-12-03T05:15:24.774Z,49.47
2018-12-03T05:17:53.622Z,43.53
2018-12-03T05:20:23.192Z,47.93
2018-12-03T05:22:52.375Z,41.33
2018-12-03T05:25:21.282Z,42.33
2018-12-03T05:27:50.462Z,41.00
2018-12-03T05:30:19.373Z,48.10
2018-12-03T05:32:48.230Z,50.70
2018-12-03T05:35:17.871Z,48.30
2018-12-03T05:37:46.710Z,43.77
2018-12-03T05:40:16.308Z,43.87
2018-12-03T05:42:45.222Z,58.10
2018-12-03T05:45:14.034Z,41.50
2018-12-03T05:47:42.842Z,55.60
2018-12-03T05:50:13.087Z,48.03
2018-12-03T05:52:42.203Z,56.27
2018-12-03T05:55:11.486Z,62.17
2018-12-03T05:57:40.306Z,51.20
2018-12-03T06:00:10.844Z,62.10
2018-12-03T06:02:39.631Z,67.77
2018-12-03T06:05:09.867Z,61.10
2018-12-03T06:07:38.822Z,50.70
2018-12-03T06:10:08.550Z,70.03
2018-12-03T06:12:37.392Z,61.97
2018-12-03T06:15:07.782Z,55.07
2018-12-03T06:17:36.618Z,61.80
2018-12-03T06:20:07.126Z,59.07
2018-12-03T06:22:35.926Z,53.40
2018-12-03T06:25:05.266Z,60.67
2018-12-03T06:27:34.107Z,48.83
2018-12-03T06:30:03.731Z,47.60
2018-12-03T06:32:33.034Z,65.15
2018-12-03T06:35:01.937Z,46.47
2018-12-03T06:37:30.738Z,50.55
2018-12-03T06:39:59.599Z,55.20
2018-12-03T06:42:28.448Z,52.03
2018-12-03T06:44:57.298Z,57.53
2018-12-03T06:47:26.140Z,48.50
2018-12-03T06:49:54.933Z,40.50
2018-12-03T06:52:24.175Z,55.97
2018-12-03T06:54:53.071Z,47.57
2018-12-03T06:57:21.876Z,45.53
2018-12-03T06:59:50.751Z,41.07
2018-12-03T07:02:19.642Z,58.30
2018-12-03T07:04:48.474Z,46.40
2018-12-03T07:07:18.015Z,51.00
2018-12-03T07:09:46.854Z,54.73
2018-12-03T07:12:15.793Z,56.97
2018-12-03T07:14:44.585Z,48.47
2018-12-03T07:17:13.410Z,55.10
2018-12-03T07:19:42.189Z,52.53
2018-12-03T07:22:11.095Z,55.27
2018-12-03T07:24:39.984Z,58.85
2018-12-03T07:27:08.810Z,50.50
2018-12-03T07:29:37.666Z,46.77
2018-12-03T07:32:06.468Z,44.43
2018-12-03T07:34:35.341Z,52.03
2018-12-03T07:37:04.235Z,60.90
2018-12-03T07:39:33.030Z,50.90
2018-12-03T07:42:01.918Z,57.00
2018-12-03T07:44:30.759Z,55.33
2018-12-03T07:46:59.776Z,43.50
2018-12-03T07:49:31.836Z,64.17
2018-12-03T07:52:00.804Z,54.27
2018-12-03T07:54:29.622Z,50.50
2018-12-03T07:56:58.420Z,58.50
2018-12-03T07:59:27.270Z,58.50
2018-12-03T08:01:56.118Z,54.60
2018-12-03T08:04:24.926Z,53.03
2018-12-03T08:06:53.747Z,46.77
2018-12-03T08:09:22.571Z,50.73
2018-12-03T08:11:51.458Z,54.63
2018-12-03T08:14:20.306Z,51.77
2018-12-03T08:16:49.213Z,60.53
2018-12-03T08:19:18.667Z,59.42
2018-12-03T08:21:47.970Z,53.30
2018-12-03T08:24:16.455Z,58.37
2018-12-03T08:26:45.639Z,61.83
2018-12-03T08:29:14.545Z,60.37
2018-12-03T08:31:43.338Z,55.20
2018-12-03T08:34:12.231Z,82.43
2018-12-03T08:36:41.022Z,57.90
2018-12-03T08:39:10.548Z,123.50
2018-12-03T08:41:39.422Z,95.80
2018-12-03T08:44:08.341Z,45.27
2018-12-03T08:46:37.195Z,47.40
2018-12-03T08:49:06.810Z,45.53
2018-12-03T08:51:35.702Z,116.90
2018-12-03T08:54:04.538Z,75.67
2018-12-03T08:56:33.350Z,66.67
2018-12-03T08:59:02.233Z,81.70
2018-12-03T09:01:31.112Z,57.90
2018-12-03T09:04:04.044Z,254.43
2018-12-03T09:06:32.932Z,108.93
2018-12-03T09:09:01.918Z,60.03
2018-12-03T09:11:30.787Z,51.80
2018-12-03T09:13:59.610Z,61.73
2018-12-03T09:16:28.428Z,58.40
2018-12-03T09:18:57.242Z,55.13
2018-12-03T09:21:26.479Z,64.70
2018-12-03T09:23:59.033Z,60.50
2018-12-03T09:26:28.277Z,58.03
2018-12-03T09:28:57.199Z,59.70
2018-12-03T09:31:26.487Z,53.03
2018-12-03T09:33:56.286Z,59.43
2018-12-03T09:36:25.532Z,62.57
2018-12-03T09:38:58.098Z,50.30
2018-12-03T09:41:26.952Z,48.87
2018-12-03T09:43:55.809Z,50.20
2018-12-03T09:46:24.678Z,55.10
2018-12-03T09:48:55.593Z,43.90
2018-12-03T09:51:29.039Z,61.07
2018-12-03T09:53:57.958Z,43.47
2018-12-03T09:56:37.245Z,41.10
2018-12-03T09:59:09.111Z,56.03
2018-12-03T10:01:37.958Z,48.50
2018-12-03T10:04:09.295Z,51.00
2018-12-03T10:06:38.102Z,55.50
2018-12-03T10:09:09.306Z,51.40
2018-12-03T10:11:38.205Z,52.93
2018-12-03T10:14:07.152Z,48.83
2018-12-03T10:16:37.199Z,47.07
2018-12-03T10:19:06.062Z,49.13
2018-12-03T10:21:34.920Z,44.40
2018-12-03T10:24:04.122Z,45.63
2018-12-03T10:26:32.987Z,40.85
2018-12-03T10:29:01.819Z,35.93
2018-12-03T10:31:30.708Z,37.10
2018-12-03T10:33:59.556Z,32.43
2018-12-03T10:36:28.403Z,31.17
2018-12-03T10:38:57.266Z,39.05
2018-12-03T10:41:28.039Z,46.70
2018-12-03T10:43:58.051Z,34.00
2018-12-03T10:46:26.903Z,40.23
2018-12-03T10:48:56.394Z,36.60
2018-12-03T10:51:25.363Z,41.00
2018-12-03T10:53:54.307Z,41.37
2018-12-03T10:56:23.227Z,43.57
2018-12-03T10:58:52.148Z,35.00
2018-12-03T11:01:24.372Z,34.70
2018-12-03T11:03:58.573Z,39.63
2018-12-03T11:06:27.588Z,43.37
2018-12-03T11:08:56.430Z,37.10
2018-12-03T11:11:25.319Z,40.30
2018-12-03T11:13:54.347Z,45.83
2018-12-03T11:16:30.657Z,36.33
2018-12-03T11:18:59.474Z,50.37
2018-12-03T11:21:28.470Z,46.27
2018-12-03T11:23:57.278Z,46.57
2018-12-03T11:26:33.847Z,34.07
2018-12-03T11:29:03.332Z,34.23
2018-12-03T11:31:33.828Z,42.60
2018-12-03T11:34:02.799Z,33.77
2018-12-03T11:37:02.694Z,41.17
2018-12-03T11:39:42.667Z,45.60
2018-12-03T11:42:12.018Z,48.60
2018-12-03T11:44:40.892Z,53.30
2018-12-03T11:47:09.733Z,34.03
2018-12-03T11:49:38.559Z,43.03
2018-12-03T11:52:07.427Z,37.67
2018-12-03T11:54:36.706Z,35.23
2018-12-03T11:57:06.518Z,39.83
2018-12-03T11:59:35.332Z,34.90
2018-12-03T12:02:04.210Z,41.50
2018-12-03T12:04:33.041Z,37.15
2018-12-03T12:07:01.911Z,43.40
2018-12-03T12:09:30.793Z,49.20
2018-12-03T12:12:00.053Z,38.30
2018-12-03T12:14:29.066Z,41.70
2018-12-03T12:16:57.911Z,48.70
2018-12-03T12:19:26.741Z,43.37
2018-12-03T12:21:55.630Z,42.23
2018-12-03T12:24:24.447Z,44.93
2018-12-03T12:26:54.189Z,43.17
2018-12-03T12:29:23.139Z,38.67
2018-12-03T12:31:52.002Z,42.80
2018-12-03T12:34:20.840Z,38.03
2018-12-03T12:36:49.667Z,29.50
2018-12-03T12:39:18.862Z,42.07
2018-12-03T12:41:47.762Z,29.13
2018-12-03T12:44:17.058Z,37.13
2018-12-03T12:46:47.034Z,32.53
2018-12-03T12:49:15.906Z,37.63
2018-12-03T12:51:44.926Z,32.57
2018-12-03T12:54:13.804Z,35.63
2018-12-03T12:56:43.141Z,42.47
2018-12-03T12:59:12.110Z,30.80
2018-12-03T13:01:41.003Z,35.53
2018-12-03T13:04:09.882Z,29.20
2018-12-03T13:06:38.816Z,41.47
2018-12-03T13:09:10.298Z,41.57
2018-12-03T13:11:39.653Z,34.10
2018-12-03T13:14:09.554Z,40.13
2018-12-03T13:16:38.402Z,50.70
2018-12-03T13:19:07.839Z,40.27
2018-12-03T13:21:36.736Z,41.40
2018-12-03T13:24:06.745Z,48.30
2018-12-03T13:26:36.698Z,37.90
2018-12-03T13:29:05.966Z,33.50
2018-12-03T13:31:35.155Z,31.60
2018-12-03T13:34:04.107Z,37.23
2018-12-03T13:36:32.956Z,29.10
2018-12-03T13:39:01.826Z,25.23
2018-12-03T13:41:30.735Z,35.00
2018-12-03T13:43:59.554Z,30.97
2018-12-03T13:46:28.413Z,31.27
2018-12-03T13:48:57.338Z,32.83
2018-12-03T13:51:26.223Z,36.60
2018-12-03T13:53:55.053Z,40.07
2018-12-03T13:56:23.863Z,37.13
2018-12-03T13:58:52.715Z,42.70
2018-12-03T14:01:21.904Z,33.23
2018-12-03T14:03:50.833Z,33.83
2018-12-03T14:06:27.434Z,41.93
2018-12-03T14:11:08.271Z,30.37
2018-12-03T14:13:46.959Z,41.77
2018-12-03T14:18:39.831Z,31.33
2018-12-03T14:21:15.460Z,50.83
2018-12-03T14:23:44.654Z,48.00
2018-12-03T14:26:13.456Z,46.57
2018-12-03T14:28:43.457Z,40.57
2018-12-03T14:31:11.193Z,48.57
2018-12-03T14:33:40.003Z,56.90
2018-12-03T14:36:08.818Z,69.63
2018-12-03T14:38:37.634Z,53.70
2018-12-03T14:41:06.536Z,43.13
2018-12-03T14:43:35.346Z,44.33
2018-12-03T14:46:04.151Z,50.67
2018-12-03T14:48:33.038Z,45.90
2018-12-03T14:51:01.904Z,41.50
2018-12-03T14:53:30.739Z,37.70
2018-12-03T14:55:59.955Z,41.20
2018-12-03T14:58:29.247Z,40.57
2018-12-03T15:00:58.106Z,44.30
2018-12-03T15:03:26.966Z,41.27
2018-12-03T15:05:55.791Z,40.77
2018-12-03T15:08:24.614Z,39.70
2018-12-03T15:10:53.497Z,37.07
2018-12-03T15:13:23.336Z,34.83
2018-12-03T15:15:51.659Z,37.20
2018-12-03T15:18:20.562Z,34.50
2018-12-03T15:20:50.990Z,35.03
2018-12-03T15:23:19.851Z,28.80
2018-12-03T15:25:49.071Z,44.60
2018-12-03T15:28:18.914Z,35.27
2018-12-03T15:30:47.806Z,37.03
2018-12-03T15:33:16.712Z,37.00
2018-12-03T15:35:46.834Z,45.30
2018-12-03T15:38:16.289Z,38.97
2018-12-03T15:40:45.159Z,38.27
2018-12-03T15:43:13.991Z,35.57
2018-12-03T15:45:42.902Z,39.70
2018-12-03T15:48:11.726Z,40.93
2018-12-03T15:50:40.579Z,42.40
2018-12-03T15:53:09.471Z,32.63
2018-12-03T15:55:38.269Z,42.60
2018-12-03T15:58:07.067Z,30.50
2018-12-03T16:01:14.572Z,42.30
2018-12-03T16:03:43.872Z,38.13
2018-12-03T16:06:12.851Z,39.90
2018-12-03T16:08:41.743Z,33.27
2018-12-03T16:11:11.149Z,42.93
2018-12-03T16:13:40.184Z,40.63
2018-12-03T16:16:09.442Z,47.47
2018-12-03T16:18:38.389Z,38.77
2018-12-03T16:23:50.992Z,31.73
2018-12-03T16:26:19.926Z,27.90
2018-12-03T16:28:48.887Z,25.00
2018-12-03T16:31:18.488Z,22.47
2018-12-03T16:33:47.768Z,24.67
2018-12-03T16:36:16.760Z,16.77
2018-12-03T16:38:45.608Z,16.23
2018-12-03T16:41:14.423Z,12.57
2018-12-03T16:43:43.374Z,7.47
2018-12-03T16:46:12.219Z,5.20
2018-12-03T16:50:56.351Z,7.63
2018-12-03T16:53:25.291Z,4.30
2018-12-03T16:55:54.591Z,4.97
2018-12-03T16:58:23.565Z,4.43
2018-12-03T17:00:52.510Z,8.67
2018-12-03T17:03:21.513Z,5.47
2018-12-03T17:05:50.440Z,4.50
2018-12-03T17:08:19.350Z,3.47
2018-12-03T17:10:48.235Z,5.60
2018-12-03T17:13:17.582Z,7.40
2018-12-03T17:15:46.935Z,6.07
2018-12-03T17:18:15.887Z,6.00
2018-12-03T17:20:57.310Z,4.00
2018-12-03T17:23:37.460Z,6.67
2018-12-03T17:26:06.423Z,5.33
2018-12-03T17:28:35.746Z,4.57
2018-12-03T17:31:04.762Z,6.33
2018-12-03T17:33:33.627Z,10.70
2018-12-03T17:36:02.604Z,5.10
2018-12-03T17:38:31.470Z,4.60
2018-12-03T17:41:00.443Z,4.67
2018-12-03T17:43:29.770Z,5.00
2018-12-03T17:45:58.716Z,5.10
2018-12-03T17:48:28.027Z,7.13
2018-12-03T17:50:57.339Z,7.83
2018-12-03T17:53:26.895Z,5.40
2018-12-03T17:55:56.674Z,3.93
2018-12-03T17:58:26.056Z,4.67
2018-12-03T18:00:55.101Z,3.53
2018-12-03T18:03:23.924Z,3.63
2018-12-03T18:05:52.907Z,3.03
2018-12-03T18:08:22.328Z,3.67
2018-12-03T18:10:51.399Z,3.60
2018-12-03T18:13:20.733Z,3.83
2018-12-03T18:15:50.166Z,2.93
2018-12-03T18:18:19.215Z,2.33
2018-12-03T18:20:48.595Z,3.07
2018-12-03T18:23:18.878Z,3.50
2018-12-03T18:25:48.365Z,5.47
2018-12-03T18:28:18.319Z,3.63
2018-12-03T18:30:47.656Z,4.40
2018-12-03T18:33:17.086Z,2.10
2018-12-03T18:35:46.167Z,3.67
2018-12-03T18:38:15.883Z,2.37
2018-12-03T18:40:45.283Z,4.20
2018-12-03T18:43:14.519Z,2.33
2018-12-03T18:45:43.858Z,1.40
2018-12-03T18:48:16.337Z,2.40
2018-12-03T18:50:46.710Z,1.77
2018-12-03T18:53:20.700Z,1.60
2018-12-03T18:55:50.447Z,2.60
2018-12-03T18:58:23.973Z,1.73
2018-12-03T19:00:52.933Z,3.27
2018-12-03T19:03:22.625Z,2.77
2018-12-03T19:05:51.869Z,3.07
2018-12-03T19:08:20.887Z,3.00
2018-12-03T19:10:49.910Z,3.63
2018-12-03T19:13:18.851Z,1.80
2018-12-03T19:15:47.770Z,2.17
2018-12-03T19:18:17.160Z,2.43
2018-12-03T19:20:46.138Z,2.30
2018-12-03T19:23:18.007Z,2.83
2018-12-03T19:25:47.023Z,2.40
2018-12-03T19:28:15.860Z,4.33
2018-12-03T19:30:45.271Z,3.87
2018-12-03T19:33:14.795Z,3.33
2018-12-03T19:35:44.352Z,4.27
2018-12-03T19:38:13.416Z,3.63
2018-12-03T19:40:42.382Z,2.53
2018-12-03T19:43:11.379Z,3.30
2018-12-03T19:45:40.391Z,3.30
2018-12-03T19:48:09.724Z,3.13
2018-12-03T19:50:38.798Z,3.03
2018-12-03T19:53:08.129Z,3.10
2018-12-03T19:55:38.221Z,2.60
2018-12-03T19:58:10.374Z,2.80
2018-12-03T20:00:39.273Z,4.00
2018-12-03T20:03:08.172Z,4.23
2018-12-03T20:05:37.053Z,2.60
2018-12-03T20:08:05.938Z,3.13
2018-12-03T20:10:34.883Z,3.10
2018-12-03T20:13:03.795Z,2.80
2018-12-03T20:15:32.777Z,2.83
2018-12-03T20:18:01.768Z,2.00
2018-12-03T20:20:37.815Z,2.53
2018-12-03T20:23:09.489Z,3.17
2018-12-03T20:25:41.385Z,3.30
2018-12-03T20:28:14.803Z,2.73
2018-12-03T20:32:54.813Z,2.13
2018-12-03T20:35:36.592Z,3.67
2018-12-03T20:38:11.000Z,1.77
2018-12-03T20:41:07.531Z,4.17
2018-12-03T20:43:37.164Z,2.50
2018-12-03T20:46:10.458Z,2.70
2018-12-03T20:48:46.827Z,1.50
2018-12-03T20:51:29.177Z,1.70
2018-12-03T20:53:58.222Z,2.17
2018-12-03T20:56:27.588Z,1.87
2018-12-03T20:58:56.587Z,1.83
2018-12-03T21:01:31.860Z,2.07
2018-12-03T21:04:00.827Z,3.90
2018-12-03T21:06:29.698Z,2.00
2018-12-03T21:08:58.640Z,2.20
2018-12-03T21:11:27.628Z,4.43
2018-12-03T21:13:56.686Z,2.23
2018-12-03T21:16:25.519Z,3.33
2018-12-03T21:18:54.417Z,3.13
2018-12-03T21:21:23.314Z,2.50
2018-12-03T21:23:52.686Z,4.43
2018-12-03T21:26:22.037Z,3.53
2018-12-03T21:28:51.108Z,8.97
2018-12-03T21:31:20.010Z,4.10
2018-12-03T21:33:48.938Z,4.47
2018-12-03T21:36:18.127Z,3.73
2018-12-03T21:38:46.963Z,2.77
2018-12-03T21:41:16.373Z,1.30
2018-12-03T21:43:45.323Z,2.10
2018-12-03T21:46:14.215Z,1.97
2018-12-03T21:48:43.635Z,3.73
2018-12-03T21:51:12.707Z,1.65
2018-12-03T21:53:41.977Z,3.60
2018-12-03T21:56:10.972Z,2.20
2018-12-03T21:58:40.295Z,3.47
2018-12-03T22:01:09.310Z,2.53
2018-12-03T22:03:38.243Z,2.60
2018-12-03T22:06:07.207Z,3.40
2018-12-03T22:08:36.063Z,5.60
2018-12-03T22:11:04.908Z,4.13
2018-12-03T22:13:33.852Z,2.17
2018-12-03T22:16:03.118Z,5.10
2018-12-03T22:18:32.427Z,2.83
2018-12-03T22:21:01.367Z,4.60
2018-12-03T22:23:30.350Z,2.60
2018-12-03T22:25:59.652Z,5.80
2018-12-03T22:28:28.702Z,2.98
2018-12-03T22:30:57.921Z,2.73
2018-12-03T22:33:27.224Z,4.03
2018-12-03T22:35:56.700Z,1.83
2018-12-03T22:38:29.145Z,2.90
2018-12-03T22:40:58.155Z,3.93
2018-12-03T22:43:27.529Z,1.47
2018-12-03T22:45:56.966Z,3.47
2018-12-03T22:48:26.387Z,3.33
2018-12-03T22:50:55.412Z,4.57
2018-12-03T22:53:24.718Z,4.97
2018-12-03T22:55:55.144Z,4.43
2018-12-03T22:58:24.123Z,4.10
2018-12-03T23:01:01.474Z,1.50
2018-12-03T23:03:30.494Z,2.50
2018-12-03T23:06:00.182Z,4.67
2018-12-03T23:08:29.700Z,3.03
2018-12-03T23:10:58.794Z,6.63
2018-12-03T23:13:28.096Z,2.37
2018-12-03T23:15:58.188Z,8.27
2018-12-03T23:18:27.603Z,1.60
2018-12-03T23:20:56.595Z,3.83
2018-12-03T23:23:25.923Z,7.37
2018-12-03T23:25:55.302Z,2.17
2018-12-03T23:28:24.751Z,4.93
2018-12-03T23:30:54.469Z,2.73
2018-12-03T23:33:23.893Z,6.30
2018-12-03T23:35:53.322Z,4.73
2018-12-03T23:38:22.351Z,6.07
2018-12-03T23:40:51.328Z,4.83
2018-12-03T23:43:21.016Z,2.93
2018-12-03T23:45:50.428Z,3.33
2018-12-03T23:48:19.458Z,1.73
2018-12-03T23:50:48.335Z,4.70
2018-12-03T23:53:17.593Z,4.53
2018-12-03T23:55:47.000Z,3.90
2018-12-03T23:58:16.010Z,4.60
